Terminal Aerodrome Forecast
Issued by NWS Grand Junction, CO

Home | Current Version | Previous Version | Text Only | Print | Product List | Glossary On
Versions: 1 2 3 4 5 6 7 8 9 10 11 12 13 14 15 16 17 18 19 20 21 22 23 24 25 26 27 28
312
FTUS45 KGJT 231140
TAFGJT
TAF
KGJT 231140Z 2312/2412 11009KT P6SM BKN250
     FM231600 14006KT P6SM SCT250
     FM231800 24005KT P6SM FEW100 SCT250
     FM232000 27009KT P6SM SCT090 SCT200
     FM240100 34006KT P6SM SCT090 BKN200
     FM240600 02006KT P6SM SCT100 SCT200=

USA.gov is the U.S. government's official web portal to all federal, state and local government web resources and services.